Time;durP1;ratioP1;P1;durP2;ratioP2;P2;SDS_P1;SDS_P2;PMS_P1;PMS_P2;Temp;Humidity;BMP_temperature;BMP_pressure;BME280_temperature;BME280_humidity;BME280_pressure;Samples;Min_cycle;Max_cycle;Signal;HPM_P1;HPM_P2
2023/05/25 00:01:26;;;;;;;15.63;3.03;;;11.00;99.90;;;;;;5004192;28;20042;-70
2023/05/25 00:03:54;;;;;;;10.43;3.08;;;11.00;99.90;;;;;;4998876;28;20038;-70
2023/05/25 00:06:21;;;;;;;6.97;2.83;;;11.00;99.90;;;;;;5010413;28;20083;-69
2023/05/25 00:08:47;;;;;;;11.15;4.00;;;11.00;99.90;;;;;;4983390;28;20097;-70
2023/05/25 00:11:18;;;;;;;12.02;3.20;;;10.90;99.90;;;;;;4994601;28;20057;-70
2023/05/25 00:13:44;;;;;;;10.43;3.17;;;10.90;99.90;;;;;;4988943;28;20052;-70
2023/05/25 00:16:09;;;;;;;9.03;2.90;;;10.80;99.90;;;;;;4990146;28;20508;-70
2023/05/25 00:18:36;;;;;;;11.87;3.23;;;10.80;99.90;;;;;;4986773;28;20085;-71
2023/05/25 00:21:05;;;;;;;10.50;3.13;;;10.80;99.90;;;;;;4971186;28;20106;-70
2023/05/25 00:23:31;;;;;;;10.45;3.35;;;10.70;99.90;;;;;;4986982;28;20251;-70
2023/05/25 00:25:57;;;;;;;8.73;3.10;;;10.70;99.90;;;;;;4991761;28;20535;-70
2023/05/25 00:28:23;;;;;;;7.50;2.83;;;10.70;99.90;;;;;;4990350;28;20137;-70
2023/05/25 00:30:49;;;;;;;15.57;3.45;;;10.70;99.90;;;;;;4989861;28;20468;-70
2023/05/25 00:33:15;;;;;;;9.05;3.20;;;10.70;99.90;;;;;;4998682;28;20136;-70
2023/05/25 00:35:45;;;;;;;14.07;3.27;;;10.70;99.90;;;;;;4992378;28;20054;-70
2023/05/25 00:38:16;;;;;;;11.48;3.55;;;10.60;99.90;;;;;;4991883;28;20428;-70
2023/05/25 00:40:43;;;;;;;11.68;3.38;;;10.60;99.90;;;;;;4987622;28;20073;-69
2023/05/25 00:43:09;;;;;;;;;;;10.80;99.90;;;;;;4987295;28;20097;-69
2023/05/25 00:45:35;;;;;;;8.65;3.38;;;10.70;99.90;;;;;;4993090;28;19973;-70
2023/05/25 00:48:02;;;;;;;9.68;4.10;;;10.70;99.90;;;;;;4982563;23;20050;-87
2023/05/25 00:50:39;;;;;;;11.65;4.10;;;10.70;99.90;;;;;;4962704;28;20051;-87
2023/05/25 00:53:05;;;;;;;;;;;10.60;99.90;;;;;;4959209;28;20146;-87
2023/05/25 00:55:44;;;;;;;11.70;3.60;;;10.60;99.90;;;;;;4964769;28;20403;-87
2023/05/25 00:58:19;;;;;;;14.43;3.33;;;10.60;99.90;;;;;;4937341;28;20120;-86
2023/05/25 01:00:48;;;;;;;9.88;3.35;;;10.60;99.90;;;;;;4943048;28;20135;-87
2023/05/25 01:03:20;;;;;;;11.23;3.90;;;10.60;99.90;;;;;;4947146;28;20039;-87
2023/05/25 01:08:16;;;;;;;10.52;3.38;;;10.60;99.90;;;;;;4974257;28;20038;-67
2023/05/25 01:10:44;;;;;;;8.35;3.92;;;10.60;99.90;;;;;;4979724;28;20508;-67
2023/05/25 01:13:13;;;;;;;9.23;3.63;;;10.60;99.90;;;;;;4963515;28;20038;-67
2023/05/25 01:15:38;;;;;;;15.75;4.38;;;10.60;99.90;;;;;;4962316;28;20058;-67
2023/05/25 01:18:05;;;;;;;9.55;4.00;;;10.50;99.90;;;;;;4954460;28;20444;-67
2023/05/25 01:20:30;;;;;;;9.00;4.38;;;10.60;99.90;;;;;;4963076;28;20485;-67
2023/05/25 01:23:05;;;;;;;12.70;4.10;;;10.50;99.90;;;;;;4958735;28;20043;-67
2023/05/25 01:25:46;;;;;;;11.50;3.85;;;10.50;99.90;;;;;;4957503;28;20049;-67
2023/05/25 01:28:27;;;;;;;13.43;3.65;;;10.50;99.90;;;;;;4958217;28;20426;-67
2023/05/25 01:30:55;;;;;;;10.68;3.63;;;10.50;99.90;;;;;;4959213;28;20074;-67
2023/05/25 01:33:22;;;;;;;13.80;4.07;;;10.50;99.90;;;;;;4959605;28;20046;-67
2023/05/25 01:35:50;;;;;;;19.35;4.45;;;10.50;99.90;;;;;;4961867;28;20042;-67
2023/05/25 01:38:17;;;;;;;9.07;3.95;;;10.50;99.90;;;;;;4955933;28;20134;-67
2023/05/25 01:40:45;;;;;;;11.63;3.80;;;10.50;99.90;;;;;;4962018;28;20070;-67
2023/05/25 01:43:11;;;;;;;13.50;4.17;;;10.50;99.90;;;;;;4977366;28;20082;-68
2023/05/25 01:45:37;;;;;;;8.50;3.67;;;10.50;99.90;;;;;;4956042;28;20122;-68
2023/05/25 01:48:22;;;;;;;9.25;3.40;;;10.50;99.90;;;;;;4955916;28;20038;-67
2023/05/25 01:51:13;;;;;;;11.48;4.38;;;10.50;99.90;;;;;;4961720;28;20636;-67
2023/05/25 01:53:45;;;;;;;9.88;4.05;;;10.50;99.90;;;;;;4956528;28;20078;-67
2023/05/25 01:56:12;;;;;;;10.00;3.67;;;10.50;99.90;;;;;;4957751;28;20121;-67
2023/05/25 01:58:41;;;;;;;15.25;4.57;;;10.50;99.90;;;;;;4956666;28;20515;-67
2023/05/25 02:01:13;;;;;;;9.70;4.35;;;10.50;99.90;;;;;;4962508;28;20129;-67
2023/05/25 02:03:40;;;;;;;14.98;4.30;;;10.50;99.90;;;;;;4960693;28;20057;-67
2023/05/25 02:06:07;;;;;;;12.20;4.57;;;10.50;99.90;;;;;;4978389;28;20078;-67
2023/05/25 02:08:32;;;;;;;14.73;5.88;;;10.50;99.90;;;;;;4962965;28;20036;-67
2023/05/25 02:10:58;;;;;;;11.00;4.43;;;10.50;99.90;;;;;;4948508;28;20056;-67
2023/05/25 02:13:24;;;;;;;13.05;4.90;;;10.50;99.90;;;;;;4954303;28;20040;-67
2023/05/25 02:15:50;;;;;;;13.07;5.20;;;10.50;99.90;;;;;;4962821;28;20093;-67
2023/05/25 02:18:16;;;;;;;10.80;4.80;;;10.60;99.90;;;;;;4964722;28;20039;-67
2023/05/25 02:20:42;;;;;;;;;;;10.50;99.90;;;;;;4966300;28;20296;-67
2023/05/25 02:23:08;;;;;;;14.23;5.35;;;10.60;99.90;;;;;;4960298;28;19979;-67
2023/05/25 02:25:34;;;;;;;12.00;5.03;;;10.60;99.90;;;;;;4959971;28;20046;-67
2023/05/25 02:27:59;;;;;;;12.07;5.67;;;10.60;99.90;;;;;;4961530;28;20065;-67
2023/05/25 02:30:27;;;;;;;7.63;4.60;;;10.60;99.90;;;;;;4954389;28;20046;-67
2023/05/25 02:32:56;;;;;;;12.13;4.78;;;10.60;99.90;;;;;;4962972;28;20064;-67
2023/05/25 02:35:22;;;;;;;16.37;5.60;;;10.60;99.90;;;;;;4956993;28;20145;-67
2023/05/25 02:37:47;;;;;;;11.82;4.95;;;10.60;99.90;;;;;;4962353;28;20118;-68
2023/05/25 02:40:13;;;;;;;13.53;5.63;;;10.50;99.90;;;;;;4959274;28;20680;-67
2023/05/25 02:42:39;;;;;;;11.05;4.60;;;10.50;99.90;;;;;;4961787;28;20512;-67
2023/05/25 02:45:09;;;;;;;10.82;4.97;;;10.50;99.90;;;;;;4962589;28;20050;-67
2023/05/25 02:47:35;;;;;;;10.95;4.70;;;10.50;99.90;;;;;;4957840;28;20090;-67
2023/05/25 02:50:01;;;;;;;10.40;4.97;;;10.50;99.90;;;;;;4957661;28;20046;-67
2023/05/25 02:52:26;;;;;;;16.92;4.90;;;10.40;99.90;;;;;;4957007;28;20043;-67
2023/05/25 02:54:52;;;;;;;15.53;5.33;;;10.40;99.90;;;;;;4975756;28;20046;-67
2023/05/25 02:57:18;;;;;;;9.83;4.47;;;10.30;99.90;;;;;;4962284;28;20074;-67
2023/05/25 02:59:43;;;;;;;12.63;4.80;;;10.40;99.90;;;;;;4953979;28;20050;-68
2023/05/25 03:02:09;;;;;;;12.20;5.50;;;10.40;99.90;;;;;;4960042;28;20228;-67
2023/05/25 03:04:36;;;;;;;12.18;5.20;;;10.30;99.90;;;;;;4981151;28;20050;-67
2023/05/25 03:07:02;;;;;;;9.40;5.20;;;10.40;99.90;;;;;;4958615;28;20413;-67
2023/05/25 03:09:28;;;;;;;15.70;5.00;;;10.40;99.90;;;;;;4958878;28;20053;-67
2023/05/25 03:11:53;;;;;;;13.63;4.23;;;10.40;99.90;;;;;;4963904;28;20346;-67
2023/05/25 03:14:19;;;;;;;12.83;4.77;;;10.40;99.90;;;;;;4961524;28;20054;-67
2023/05/25 03:16:45;;;;;;;9.85;4.75;;;10.40;99.90;;;;;;4957376;28;22102;-68
2023/05/25 03:19:11;;;;;;;14.03;4.47;;;10.40;99.90;;;;;;4966503;28;20058;-67
2023/05/25 03:21:37;;;;;;;16.23;4.63;;;10.40;99.90;;;;;;4979769;28;20440;-67
2023/05/25 03:24:03;;;;;;;;;;;10.40;99.90;;;;;;4976147;28;20285;-67
2023/05/25 03:26:29;;;;;;;11.05;4.75;;;10.40;99.90;;;;;;4965368;28;20295;-67
2023/05/25 03:28:55;;;;;;;8.32;4.80;;;10.40;99.90;;;;;;4956948;28;20443;-67
2023/05/25 03:31:21;;;;;;;10.50;4.80;;;10.40;99.90;;;;;;4958368;28;20035;-67
2023/05/25 03:33:47;;;;;;;;;;;10.40;99.90;;;;;;4960981;28;20193;-67
2023/05/25 03:36:16;;;;;;;15.63;4.75;;;10.30;99.90;;;;;;4954268;28;20012;-67
2023/05/25 03:38:42;;;;;;;13.32;4.85;;;10.20;99.90;;;;;;4976081;28;20047;-67
2023/05/25 03:41:08;;;;;;;;;;;10.30;99.90;;;;;;4956514;28;20173;-67
2023/05/25 03:43:42;;;;;;;10.48;4.57;;;10.20;99.90;;;;;;4960139;28;20020;-67
2023/05/25 03:46:10;;;;;;;15.32;5.35;;;10.20;99.90;;;;;;4955232;28;20764;-67
2023/05/25 03:48:36;;;;;;;13.68;4.85;;;10.20;99.90;;;;;;4960166;28;20038;-68
2023/05/25 03:51:02;;;;;;;13.85;4.88;;;10.20;99.90;;;;;;4954771;28;20492;-67
2023/05/25 03:53:27;;;;;;;11.35;5.00;;;10.20;99.90;;;;;;4960406;28;20505;-67
2023/05/25 03:55:53;;;;;;;11.80;4.80;;;10.20;99.90;;;;;;4967340;28;20042;-67
2023/05/25 03:58:18;;;;;;;9.47;4.87;;;10.30;99.90;;;;;;4959313;28;20062;-67
2023/05/25 04:00:44;;;;;;;12.87;5.30;;;10.30;99.90;;;;;;4963333;28;20297;-67
2023/05/25 04:03:10;;;;;;;15.23;5.13;;;10.40;99.90;;;;;;4960606;28;20513;-67
2023/05/25 04:05:37;;;;;;;10.97;5.00;;;10.40;99.90;;;;;;4965952;28;20050;-67
2023/05/25 04:08:03;;;;;;;10.60;5.03;;;10.50;99.90;;;;;;4963142;28;20074;-67
2023/05/25 04:10:28;;;;;;;10.23;4.82;;;10.50;99.90;;;;;;4980026;28;20075;-67
2023/05/25 04:12:55;;;;;;;15.37;5.37;;;10.50;99.90;;;;;;4958317;28;20050;-67
2023/05/25 04:15:21;;;;;;;9.48;4.72;;;10.50;99.90;;;;;;4971018;28;20051;-67
2023/05/25 04:17:47;;;;;;;12.57;5.63;;;10.60;99.90;;;;;;4960871;28;20101;-68
2023/05/25 04:20:12;;;;;;;10.83;5.30;;;10.60;99.90;;;;;;4937245;28;20051;-67
2023/05/25 04:22:38;;;;;;;11.27;5.07;;;10.60;99.90;;;;;;4979905;28;20046;-67
2023/05/25 04:25:07;;;;;;;13.37;5.23;;;10.60;99.90;;;;;;4963379;28;20042;-67
2023/05/25 04:27:33;;;;;;;9.30;5.13;;;10.70;99.90;;;;;;4962411;28;20041;-67
2023/05/25 04:29:59;;;;;;;11.63;5.33;;;10.80;99.90;;;;;;4962727;28;20393;-67
2023/05/25 04:32:28;;;;;;;10.57;5.07;;;10.70;99.90;;;;;;4961549;28;20034;-68
2023/05/25 04:34:59;;;;;;;12.43;5.65;;;10.80;99.90;;;;;;4948664;28;20043;-67
2023/05/25 04:37:29;;;;;;;13.13;4.88;;;10.80;99.90;;;;;;4959414;28;20073;-68
2023/05/25 04:39:58;;;;;;;11.35;5.20;;;10.80;99.90;;;;;;4964545;28;20061;-67
2023/05/25 04:42:24;;;;;;;16.20;4.75;;;10.80;99.90;;;;;;4958665;28;20078;-68
2023/05/25 04:44:54;;;;;;;9.70;5.20;;;10.90;99.90;;;;;;4963510;28;20441;-68
2023/05/25 04:47:21;;;;;;;16.42;6.13;;;10.90;99.90;;;;;;4959560;28;20043;-67
2023/05/25 04:49:46;;;;;;;;;;;10.90;99.90;;;;;;4963281;28;20122;-67
2023/05/25 04:52:12;;;;;;;16.25;5.20;;;11.00;99.90;;;;;;4961755;28;20033;-67
2023/05/25 04:54:37;;;;;;;16.27;5.53;;;11.00;99.90;;;;;;4959112;28;20078;-67
2023/05/25 04:57:03;;;;;;;12.57;5.33;;;10.90;99.90;;;;;;4960918;28;20121;-68
2023/05/25 04:59:29;;;;;;;13.60;5.53;;;11.10;99.90;;;;;;4946961;28;20039;-67
2023/05/25 05:01:55;;;;;;;15.73;5.23;;;11.10;99.90;;;;;;4971120;28;20070;-67
2023/05/25 05:04:20;;;;;;;15.00;5.03;;;11.10;99.90;;;;;;4946178;28;20043;-67
2023/05/25 05:06:46;;;;;;;11.55;5.30;;;11.10;99.90;;;;;;4961066;28;20093;-67
2023/05/25 05:09:12;;;;;;;10.63;5.40;;;11.20;99.90;;;;;;4963520;28;20047;-67
2023/05/25 05:11:37;;;;;;;13.07;6.27;;;11.20;99.90;;;;;;4958310;28;20342;-67
2023/05/25 05:14:03;;;;;;;17.40;4.95;;;11.30;99.90;;;;;;4958587;28;20347;-67
2023/05/25 05:16:32;;;;;;;14.65;4.68;;;11.30;99.90;;;;;;4978105;28;20051;-68
2023/05/25 05:18:59;;;;;;;17.35;6.25;;;11.30;99.90;;;;;;4962536;28;20054;-68
2023/05/25 05:21:25;;;;;;;;;;;11.40;99.90;;;;;;4957319;28;20105;-67
2023/05/25 05:23:50;;;;;;;10.48;4.95;;;11.40;99.90;;;;;;4975357;28;19922;-68
2023/05/25 05:26:16;;;;;;;13.13;5.73;;;11.40;99.90;;;;;;4958318;28;20105;-67
2023/05/25 05:28:41;;;;;;;12.83;5.13;;;11.40;99.90;;;;;;4957460;28;20241;-67
2023/05/25 05:31:07;;;;;;;10.97;4.77;;;11.50;99.90;;;;;;4960510;28;20039;-67
2023/05/25 05:33:33;;;;;;;14.20;5.38;;;11.50;99.90;;;;;;4960604;28;20114;-67
2023/05/25 05:36:00;;;;;;;12.03;4.90;;;11.60;99.90;;;;;;4957611;28;20274;-67
2023/05/25 05:38:25;;;;;;;14.93;5.22;;;11.60;99.90;;;;;;4959100;28;20050;-67
2023/05/25 05:40:51;;;;;;;9.57;4.88;;;11.70;99.90;;;;;;4958215;28;20599;-68
2023/05/25 05:43:16;;;;;;;12.20;5.17;;;11.80;99.90;;;;;;4951085;28;20039;-70
2023/05/25 05:45:42;;;;;;;14.67;5.27;;;11.80;99.90;;;;;;4979497;28;20267;-68
2023/05/25 05:48:11;;;;;;;14.93;5.07;;;11.90;99.90;;;;;;4968962;28;20417;-70
2023/05/25 05:50:37;;;;;;;14.05;5.90;;;12.00;99.90;;;;;;4960009;28;20039;-68
2023/05/25 05:53:03;;;;;;;17.50;5.85;;;12.00;99.90;;;;;;4955669;28;20129;-68
2023/05/25 05:55:29;;;;;;;;;;;12.10;99.90;;;;;;4956731;28;20364;-67
2023/05/25 05:57:54;;;;;;;14.30;5.22;;;12.10;99.90;;;;;;4963355;28;19918;-67
2023/05/25 06:00:20;;;;;;;11.77;6.00;;;12.20;99.90;;;;;;4961358;28;20039;-68
2023/05/25 06:02:46;;;;;;;8.98;4.70;;;12.20;99.90;;;;;;4958530;28;20288;-68
2023/05/25 06:05:12;;;;;;;10.05;4.55;;;12.30;99.90;;;;;;4960172;28;20468;-68
2023/05/25 06:07:38;;;;;;;13.38;4.78;;;12.40;99.90;;;;;;4960647;28;20047;-68
2023/05/25 06:10:05;;;;;;;14.60;6.28;;;12.40;99.90;;;;;;4959187;28;20145;-72
2023/05/25 06:12:30;;;;;;;8.70;4.30;;;12.50;99.90;;;;;;4966084;28;20049;-67
2023/05/25 06:14:56;;;;;;;15.88;4.80;;;12.50;99.90;;;;;;4961465;28;20047;-67
2023/05/25 06:17:24;;;;;;;9.27;4.57;;;12.60;99.90;;;;;;4965123;28;20058;-69
2023/05/25 06:19:50;;;;;;;16.35;4.70;;;12.70;99.90;;;;;;4964771;28;20050;-68
2023/05/25 06:22:16;;;;;;;17.35;5.45;;;12.70;99.90;;;;;;4964942;28;20041;-71
2023/05/25 06:24:42;;;;;;;17.73;4.53;;;12.80;99.90;;;;;;4982781;28;20077;-71
2023/05/25 06:27:12;;;;;;;12.00;3.85;;;12.90;99.90;;;;;;4955726;28;20086;-68
2023/05/25 06:29:37;;;;;;;10.73;3.38;;;12.90;99.90;;;;;;4962107;28;20060;-68
2023/05/25 06:32:03;;;;;;;10.70;4.73;;;12.90;99.90;;;;;;4963128;28;20047;-66
2023/05/25 06:34:29;;;;;;;12.32;4.72;;;13.00;99.90;;;;;;4961531;28;20264;-67
2023/05/25 06:36:58;;;;;;;14.05;4.00;;;13.10;99.90;;;;;;4948424;28;20357;-71
2023/05/25 06:39:23;;;;;;;13.20;4.03;;;13.10;99.90;;;;;;4959041;28;20043;-68
2023/05/25 06:41:50;;;;;;;14.97;4.17;;;13.20;99.90;;;;;;4978221;28;20520;-68
2023/05/25 06:44:15;;;;;;;10.75;4.15;;;13.30;99.90;;;;;;4958637;28;20311;-69
2023/05/25 06:46:41;;;;;;;13.30;3.47;;;13.30;99.90;;;;;;4976949;22;20087;-67
2023/05/25 06:49:06;;;;;;;11.73;2.20;;;13.40;99.90;;;;;;4962899;28;20117;-68
2023/05/25 06:51:32;;;;;;;8.20;2.67;;;13.50;99.90;;;;;;4966847;28;20285;-69
2023/05/25 06:54:01;;;;;;;13.90;2.63;;;13.50;99.90;;;;;;4969796;28;20081;-68
2023/05/25 06:56:26;;;;;;;9.20;2.05;;;13.50;99.90;;;;;;4969177;28;20313;-68
2023/05/25 06:58:52;;;;;;;9.02;3.03;;;13.70;99.90;;;;;;4967081;28;20046;-68
2023/05/25 07:01:18;;;;;;;12.20;2.10;;;13.80;99.90;;;;;;4964796;28;20412;-68
2023/05/25 07:03:43;;;;;;;12.63;2.83;;;13.80;99.90;;;;;;4967506;28;20050;-68
2023/05/25 07:06:11;;;;;;;13.43;2.87;;;13.90;99.90;;;;;;4967044;28;20531;-67
2023/05/25 07:08:36;;;;;;;16.05;3.17;;;13.90;99.90;;;;;;4982183;28;20118;-68
2023/05/25 07:11:02;;;;;;;16.48;3.33;;;13.90;99.90;;;;;;4969453;28;20109;-68
2023/05/25 07:13:28;;;;;;;9.93;2.58;;;13.90;99.90;;;;;;4964890;28;20206;-68
2023/05/25 07:15:53;;;;;;;13.43;2.77;;;14.00;99.90;;;;;;4968669;28;20077;-68
2023/05/25 07:18:19;;;;;;;7.82;2.78;;;14.00;99.90;;;;;;4963242;28;20113;-68
2023/05/25 07:20:45;;;;;;;17.55;2.67;;;13.90;99.90;;;;;;4966751;28;20112;-68
2023/05/25 07:23:11;;;;;;;10.13;1.90;;;14.00;99.90;;;;;;4964237;28;20412;-68
2023/05/25 07:25:37;;;;;;;13.30;2.00;;;13.90;99.90;;;;;;4968321;28;20044;-68
2023/05/25 07:28:03;;;;;;;14.43;2.90;;;13.90;99.90;;;;;;4966545;28;20472;-68
2023/05/25 07:30:29;;;;;;;11.95;2.78;;;13.90;99.90;;;;;;4966015;28;20042;-68
2023/05/25 07:32:55;;;;;;;15.07;2.95;;;13.90;99.90;;;;;;4966078;28;20051;-68
2023/05/25 07:35:21;;;;;;;9.27;2.47;;;14.00;99.90;;;;;;4963986;28;20055;-67
2023/05/25 07:37:58;;;;;;;15.02;3.30;;;14.00;99.90;;;;;;4960540;28;20051;-68
2023/05/25 07:40:23;;;;;;;11.48;3.28;;;14.00;99.90;;;;;;4964526;28;20053;-68
2023/05/25 07:42:49;;;;;;;13.57;3.23;;;14.00;99.90;;;;;;4967054;28;20323;-68
2023/05/25 07:45:15;;;;;;;12.60;2.20;;;14.10;99.90;;;;;;4965936;28;20335;-68
2023/05/25 07:47:41;;;;;;;11.98;3.50;;;14.10;99.90;;;;;;4966228;28;20130;-68
2023/05/25 07:50:07;;;;;;;12.47;2.13;;;14.10;99.90;;;;;;4965413;28;20058;-68
2023/05/25 07:52:32;;;;;;;8.98;2.92;;;14.10;99.90;;;;;;4961294;28;20289;-68
2023/05/25 07:54:58;;;;;;;16.83;2.60;;;14.20;99.90;;;;;;4964302;28;20369;-68
2023/05/25 07:57:24;;;;;;;10.73;2.80;;;14.30;99.90;;;;;;4964573;28;20035;-68
2023/05/25 07:59:49;;;;;;;16.65;3.20;;;14.40;99.90;;;;;;4965140;28;20085;-68
2023/05/25 08:02:15;;;;;;;14.25;2.90;;;14.50;99.90;;;;;;4964183;28;20409;-68
2023/05/25 08:04:41;;;;;;;11.02;2.75;;;14.50;99.90;;;;;;4962046;28;20042;-68
2023/05/25 08:07:07;;;;;;;15.50;3.38;;;14.60;99.90;;;;;;4960452;28;20049;-67
2023/05/25 08:09:32;;;;;;;12.45;2.22;;;14.70;99.90;;;;;;4965070;28;20046;-68
2023/05/25 08:11:58;;;;;;;12.60;2.60;;;14.70;99.90;;;;;;4965280;28;20049;-68
2023/05/25 08:14:24;;;;;;;15.75;2.53;;;14.80;99.90;;;;;;4965071;28;20042;-68
2023/05/25 08:16:50;;;;;;;13.73;2.70;;;14.80;99.90;;;;;;4963461;28;20120;-68
2023/05/25 08:19:16;;;;;;;11.77;2.53;;;14.80;99.90;;;;;;4963720;28;20046;-68
2023/05/25 08:21:41;;;;;;;15.88;4.57;;;14.70;99.90;;;;;;4961911;28;20074;-68
2023/05/25 08:24:07;;;;;;;12.52;2.90;;;14.60;99.90;;;;;;4965421;28;20042;-68
2023/05/25 08:26:35;;;;;;;13.57;2.27;;;14.60;99.90;;;;;;4965219;28;20397;-68
2023/05/25 08:29:02;;;;;;;12.07;3.35;;;14.50;99.90;;;;;;4964140;28;20077;-67
2023/05/25 08:31:29;;;;;;;17.10;3.03;;;14.40;99.90;;;;;;4964344;28;20374;-67
2023/05/25 08:33:55;;;;;;;12.55;2.50;;;14.40;99.90;;;;;;4964148;28;20061;-73
2023/05/25 08:36:21;;;;;;;12.25;3.30;;;14.50;99.90;;;;;;4970420;28;20385;-68
2023/05/25 08:38:47;;;;;;;10.00;2.72;;;14.70;99.90;;;;;;4958032;28;20046;-71
2023/05/25 08:41:12;;;;;;;10.17;2.77;;;14.90;99.90;;;;;;4960890;28;20058;-67
2023/05/25 08:43:40;;;;;;;13.57;2.58;;;15.00;99.90;;;;;;4959159;28;20198;-69
2023/05/25 08:46:07;;;;;;;14.88;3.67;;;15.30;99.90;;;;;;4961654;28;20162;-70
2023/05/25 08:48:34;;;;;;;11.07;2.65;;;15.50;99.90;;;;;;4968123;28;20066;-69
2023/05/25 08:51:11;;;;;;;12.32;3.03;;;15.50;99.90;;;;;;4965043;28;20046;-71
2023/05/25 08:53:39;;;;;;;16.25;3.75;;;15.50;99.90;;;;;;4963727;28;20055;-71
2023/05/25 08:56:18;;;;;;;13.63;2.75;;;15.50;99.90;;;;;;4962252;28;20058;-72
2023/05/25 08:58:51;;;;;;;13.70;2.97;;;15.40;99.90;;;;;;4958883;28;20125;-67
2023/05/25 09:01:19;;;;;;;19.52;3.10;;;15.20;99.90;;;;;;4966577;28;20132;-67
2023/05/25 09:03:48;;;;;;;17.83;3.28;;;15.10;99.90;;;;;;4964446;28;20059;-68
2023/05/25 09:06:15;;;;;;;14.60;3.70;;;15.10;99.90;;;;;;4966907;28;20062;-68
2023/05/25 09:08:43;;;;;;;15.45;3.42;;;15.20;99.90;;;;;;4962465;28;20066;-68
2023/05/25 09:11:10;;;;;;;15.07;3.08;;;15.20;99.90;;;;;;4965637;28;20039;-69
2023/05/25 09:13:36;;;;;;;14.63;3.28;;;15.20;99.90;;;;;;4963688;28;20039;-68
2023/05/25 09:16:02;;;;;;;14.85;2.60;;;15.30;99.90;;;;;;4964374;28;20066;-67
2023/05/25 09:18:27;;;;;;;14.93;2.75;;;15.50;99.90;;;;;;4964756;28;20134;-68
2023/05/25 09:20:54;;;;;;;14.00;2.30;;;15.60;99.90;;;;;;4965452;28;20472;-67
2023/05/25 09:23:20;;;;;;;15.32;2.45;;;15.60;99.90;;;;;;4964649;28;20794;-67
2023/05/25 09:25:47;;;;;;;14.30;2.50;;;15.70;99.90;;;;;;4964689;28;20042;-67
2023/05/25 09:28:12;;;;;;;13.95;3.40;;;15.90;99.90;;;;;;4958998;28;20035;-68
2023/05/25 09:30:38;;;;;;;20.33;2.53;;;16.00;99.90;;;;;;4965957;28;20481;-68
2023/05/25 09:33:16;;;;;;;12.73;2.35;;;16.10;99.90;;;;;;4965033;28;20050;-68
2023/05/25 09:35:43;;;;;;;11.10;2.88;;;16.10;99.90;;;;;;4957031;28;20497;-68
2023/05/25 09:38:11;;;;;;;13.73;2.40;;;16.20;99.90;;;;;;4969123;28;20118;-68
2023/05/25 09:40:37;;;;;;;17.55;2.88;;;16.10;99.90;;;;;;4964802;28;20101;-68
2023/05/25 09:43:03;;;;;;;14.82;2.55;;;15.90;99.90;;;;;;4960002;28;20354;-68
2023/05/25 09:45:29;;;;;;;8.60;1.90;;;15.90;99.90;;;;;;4973494;28;20536;-67
2023/05/25 09:47:58;;;;;;;10.10;2.60;;;16.00;99.90;;;;;;4964659;28;20039;-68
2023/05/25 09:50:27;;;;;;;12.23;2.75;;;16.10;99.90;;;;;;4962771;28;20085;-68
2023/05/25 09:52:59;;;;;;;7.35;2.20;;;16.20;99.90;;;;;;4966261;28;20113;-67
2023/05/25 09:55:28;;;;;;;13.48;2.58;;;16.10;99.90;;;;;;4942953;29;20134;-69
2023/05/25 09:57:55;;;;;;;13.15;2.60;;;16.10;99.90;;;;;;4956638;28;20453;-67
2023/05/25 10:00:24;;;;;;;9.85;2.10;;;15.90;99.90;;;;;;4963984;28;20050;-68
2023/05/25 10:02:50;;;;;;;15.07;3.00;;;16.10;99.90;;;;;;4966130;28;20075;-68
2023/05/25 10:05:16;;;;;;;11.07;2.72;;;16.20;99.90;;;;;;4965602;28;20061;-67
2023/05/25 10:07:45;;;;;;;17.20;3.03;;;16.40;99.90;;;;;;4965304;28;20047;-68
2023/05/25 10:10:14;;;;;;;8.27;2.38;;;16.50;99.90;;;;;;4964776;28;20397;-68
2023/05/25 10:12:41;;;;;;;12.93;2.45;;;16.50;99.90;;;;;;4963404;28;20120;-68
2023/05/25 10:15:09;;;;;;;14.90;2.78;;;16.40;99.90;;;;;;4965051;28;20599;-68
2023/05/25 10:17:39;;;;;;;9.00;2.38;;;16.40;99.90;;;;;;4964773;28;20046;-68
2023/05/25 10:20:08;;;;;;;9.43;2.08;;;16.40;99.90;;;;;;4962005;28;20043;-68
2023/05/25 10:22:38;;;;;;;14.48;2.83;;;16.40;99.90;;;;;;4969034;28;20087;-68
2023/05/25 10:25:11;;;;;;;15.40;2.50;;;16.40;99.90;;;;;;4965368;28;20118;-68
2023/05/25 10:27:43;;;;;;;14.80;3.08;;;16.60;99.90;;;;;;4951322;28;20122;-68
2023/05/25 10:30:09;;;;;;;14.45;3.40;;;16.70;99.90;;;;;;4964507;28;20251;-68
2023/05/25 10:32:38;;;;;;;9.02;2.50;;;16.60;99.90;;;;;;4961947;28;20496;-68
2023/05/25 10:35:05;;;;;;;13.60;2.53;;;16.50;99.90;;;;;;4951358;28;20042;-68
2023/05/25 10:37:32;;;;;;;7.47;2.00;;;16.50;99.90;;;;;;4966954;28;20078;-68
2023/05/25 10:40:00;;;;;;;14.38;3.38;;;16.50;99.90;;;;;;4966484;28;20125;-68
2023/05/25 10:42:26;;;;;;;15.38;2.95;;;16.40;99.90;;;;;;4963142;28;20130;-68
2023/05/25 10:44:53;;;;;;;18.15;3.17;;;16.40;99.90;;;;;;4967961;28;20500;-68
2023/05/25 10:47:20;;;;;;;14.68;3.38;;;16.50;99.90;;;;;;4967085;28;20511;-68
2023/05/25 10:49:56;;;;;;;11.55;2.45;;;16.70;99.90;;;;;;4970131;28;20046;-68
2023/05/25 10:52:31;;;;;;;8.48;2.53;;;16.70;99.90;;;;;;4967822;28;20075;-68
2023/05/25 10:55:05;;;;;;;15.25;3.17;;;16.70;99.90;;;;;;4970562;28;20349;-68
2023/05/25 10:57:31;;;;;;;11.45;2.53;;;16.80;99.90;;;;;;4948073;28;20309;-68
2023/05/25 11:00:05;;;;;;;12.60;2.70;;;16.90;99.90;;;;;;4963921;28;20050;-68
2023/05/25 11:02:53;;;;;;;17.15;3.10;;;17.00;99.90;;;;;;4966946;28;20047;-69
2023/05/25 11:05:25;;;;;;;11.82;3.00;;;17.00;99.90;;;;;;4968411;28;20397;-68
2023/05/25 11:07:59;;;;;;;14.65;3.10;;;17.00;99.90;;;;;;4966071;28;20074;-68
2023/05/25 11:10:40;;;;;;;10.35;2.85;;;17.10;99.90;;;;;;4965807;28;20034;-68
2023/05/25 11:13:22;;;;;;;12.80;2.47;;;17.10;99.90;;;;;;4968237;28;20118;-68
2023/05/25 11:16:08;;;;;;;12.82;2.30;;;17.20;99.90;;;;;;4962874;28;20051;-68
2023/05/25 11:18:37;;;;;;;19.58;3.35;;;17.20;99.90;;;;;;4966884;28;20043;-68
2023/05/25 11:21:14;;;;;;;13.77;3.65;;;17.10;99.90;;;;;;4966187;28;20042;-68
2023/05/25 11:23:56;;;;;;;17.88;2.83;;;17.10;99.90;;;;;;4968665;28;20488;-68
2023/05/25 11:26:24;;;;;;;11.55;2.90;;;17.10;99.90;;;;;;4963495;28;20511;-69
2023/05/25 11:28:51;;;;;;;9.98;2.08;;;17.10;99.90;;;;;;4967913;28;20077;-68
2023/05/25 11:31:35;;;;;;;11.35;2.95;;;17.20;99.90;;;;;;4966205;28;20517;-68
2023/05/25 11:34:03;;;;;;;10.80;2.83;;;17.40;99.90;;;;;;4963189;28;20034;-68
2023/05/25 11:36:35;;;;;;;10.32;3.05;;;17.40;99.90;;;;;;4966527;28;20046;-69
2023/05/25 11:39:04;;;;;;;16.90;2.58;;;17.30;99.90;;;;;;4962806;28;20054;-68
2023/05/25 11:41:31;;;;;;;12.85;2.53;;;17.20;99.90;;;;;;4964239;28;20563;-69
2023/05/25 11:44:03;;;;;;;15.98;2.85;;;17.20;99.90;;;;;;4965742;28;20101;-68
2023/05/25 11:46:32;;;;;;;15.55;3.00;;;17.40;99.90;;;;;;4970939;28;20043;-68
2023/05/25 11:48:58;;;;;;;13.02;3.33;;;17.50;99.90;;;;;;4962218;28;20059;-68
2023/05/25 11:51:26;;;;;;;12.43;2.97;;;17.50;99.90;;;;;;4963324;28;20123;-68
2023/05/25 11:53:52;;;;;;;12.32;3.50;;;17.30;99.90;;;;;;4963472;28;20061;-68
2023/05/25 11:56:19;;;;;;;15.07;2.67;;;17.20;99.90;;;;;;4958466;28;20270;-69
2023/05/25 11:58:46;;;;;;;12.07;2.55;;;17.20;99.90;;;;;;4962898;28;20177;-68
2023/05/25 12:01:14;;;;;;;16.05;2.58;;;17.30;99.90;;;;;;4965727;28;20101;-68
2023/05/25 12:03:40;;;;;;;15.40;3.22;;;17.40;99.90;;;;;;4962515;28;20051;-68
2023/05/25 12:06:05;;;;;;;13.73;2.83;;;17.40;99.90;;;;;;4967113;28;20182;-68
2023/05/25 12:08:35;;;;;;;18.98;3.25;;;17.40;99.90;;;;;;4954474;28;20125;-68
2023/05/25 12:11:01;;;;;;;16.20;2.63;;;17.40;99.90;;;;;;4965303;28;20136;-68
2023/05/25 12:13:30;;;;;;;16.58;2.92;;;17.40;99.90;;;;;;4957374;28;20468;-68
2023/05/25 12:15:56;;;;;;;12.80;2.35;;;17.40;99.90;;;;;;4966418;28;20074;-68
2023/05/25 12:18:22;;;;;;;;;;;17.40;99.90;;;;;;4967026;28;20094;-68
2023/05/25 12:20:49;;;;;;;11.57;2.95;;;17.50;99.90;;;;;;4966961;28;20068;-68
2023/05/25 12:23:15;;;;;;;15.82;2.92;;;17.60;99.90;;;;;;4966009;28;20039;-68
2023/05/25 12:25:41;;;;;;;12.48;3.10;;;17.90;99.90;;;;;;4970089;28;20189;-68
2023/05/25 12:28:14;;;;;;;13.82;2.83;;;18.10;99.90;;;;;;4967259;28;20085;-68
2023/05/25 12:30:40;;;;;;;12.98;2.97;;;18.10;99.90;;;;;;4969491;28;20518;-68
2023/05/25 12:33:06;;;;;;;13.98;3.30;;;17.90;99.90;;;;;;4967043;28;20077;-68
2023/05/25 12:35:49;;;;;;;10.57;2.13;;;17.70;99.90;;;;;;4966769;28;20046;-68
2023/05/25 12:38:17;;;;;;;30.67;4.35;;;17.80;99.90;;;;;;4964570;28;20125;-68
2023/05/25 12:40:43;;;;;;;14.20;2.78;;;17.90;99.90;;;;;;4963463;28;20069;-68
2023/05/25 12:43:13;;;;;;;13.13;2.55;;;18.10;99.90;;;;;;4975676;28;20119;-68
2023/05/25 12:45:40;;;;;;;15.73;3.30;;;18.20;99.90;;;;;;4963391;28;20039;-68